createdAt,value
2022-11-10T00:00:55.933Z,100441.44
2022-11-10T00:05:57.433Z,100433.56
2022-11-10T00:10:58.871Z,100448.84
2022-11-10T00:16:24.470Z,100455.38
2022-11-10T00:21:25.729Z,100458.16
2022-11-10T00:26:27.046Z,100468.22
2022-11-10T00:31:28.397Z,100483.34
2022-11-10T00:36:30.301Z,100490.47
2022-11-10T00:41:32.098Z,100494.84
2022-11-10T00:46:33.428Z,100495.94
2022-11-10T00:51:34.765Z,100502.47
2022-11-10T00:56:36.063Z,100502.13
2022-11-10T01:01:37.406Z,100524.63
2022-11-10T01:06:39.075Z,100535.50
2022-11-10T01:11:40.426Z,100546.16
2022-11-10T01:16:41.734Z,100553.19
2022-11-10T01:21:43.253Z,100551.50
2022-11-10T01:26:44.557Z,100558.88
2022-11-10T01:31:45.888Z,100564.19
2022-11-10T01:36:47.216Z,100569.66
2022-11-10T01:41:48.602Z,100580.13
2022-11-10T01:46:49.872Z,100577.09
2022-11-10T01:52:00.534Z,100584.09
2022-11-10T01:57:07.716Z,100590.19
2022-11-10T02:02:28.369Z,100596.69
2022-11-10T02:07:31.732Z,100600.78
2022-11-10T02:12:39.172Z,100596.16
2022-11-10T02:17:41.784Z,100600.75
2022-11-10T02:22:43.061Z,100606.53
2022-11-10T02:27:44.444Z,100609.28
2022-11-10T02:32:46.036Z,100610.97
2022-11-10T02:37:47.352Z,100606.31
2022-11-10T02:42:48.788Z,100594.81
2022-11-10T02:47:50.283Z,100605.69
2022-11-10T02:52:51.665Z,100598.66
2022-11-10T02:57:53.097Z,100600.75
2022-11-10T03:02:58.290Z,100602.06
2022-11-10T03:08:02.276Z,100618.47
2022-11-10T03:13:03.722Z,100630.09
2022-11-10T03:18:05.244Z,100641.56
2022-11-10T03:23:07.141Z,100646.78
2022-11-10T03:28:08.920Z,100639.97
2022-11-10T03:33:10.161Z,100654.66
2022-11-10T03:38:11.471Z,100667.63
2022-11-10T03:43:12.711Z,100673.56
2022-11-10T03:48:13.975Z,100672.00
2022-11-10T03:53:15.215Z,100688.06
2022-11-10T03:58:16.497Z,100685.50
2022-11-10T04:03:17.767Z,100685.50
2022-11-10T04:08:37.735Z,100705.72
2022-11-10T04:13:57.513Z,100706.34
2022-11-10T04:18:58.761Z,100711.13
2022-11-10T04:24:00.048Z,100713.63
2022-11-10T04:29:03.576Z,100729.03
2022-11-10T04:34:10.678Z,100739.72
2022-11-10T04:39:12.129Z,100733.22
2022-11-10T04:44:13.453Z,100726.53
2022-11-10T04:49:14.811Z,100735.78
2022-11-10T04:54:16.191Z,100729.00
2022-11-10T04:59:17.442Z,100758.97
2022-11-10T05:04:18.747Z,100767.25
2022-11-10T05:09:20.123Z,100772.78
2022-11-10T05:14:21.428Z,100787.03
2022-11-10T05:19:22.728Z,100777.66
2022-11-10T05:24:23.975Z,100798.09
2022-11-10T05:29:25.245Z,100802.53
2022-11-10T05:34:26.616Z,100808.03
2022-11-10T05:39:27.987Z,100831.44
2022-11-10T05:44:29.255Z,100831.84
2022-11-10T05:49:30.603Z,100848.69
2022-11-10T05:54:31.983Z,100846.19
2022-11-10T05:59:33.326Z,100853.88
2022-11-10T06:04:34.620Z,100861.50
2022-11-10T06:09:36.456Z,100877.09
2022-11-10T06:14:37.791Z,100874.44
2022-11-10T06:19:39.086Z,100903.47
2022-11-10T06:24:40.389Z,100923.66
2022-11-10T06:29:41.849Z,100932.22
2022-11-10T06:34:43.783Z,100936.91
2022-11-10T06:39:46.388Z,100956.13
2022-11-10T06:44:47.689Z,100966.56
2022-11-10T06:49:48.959Z,100966.97
2022-11-10T06:54:50.325Z,100986.13
2022-11-10T06:59:51.657Z,100962.25
2022-11-10T07:04:52.948Z,100995.81
2022-11-10T07:09:55.309Z,100993.66
2022-11-10T07:14:56.603Z,101019.91
2022-11-10T07:19:57.940Z,101029.38
2022-11-10T07:24:59.248Z,101041.63
2022-11-10T07:30:00.536Z,101048.66
2022-11-10T07:35:01.792Z,101068.75
2022-11-10T07:40:03.850Z,101072.59
2022-11-10T07:45:05.726Z,101074.06
2022-11-10T07:50:07.690Z,101069.00
2022-11-10T07:55:09.308Z,101083.97
2022-11-10T08:00:12.588Z,101092.50
2022-11-10T08:05:13.978Z,101096.75
2022-11-10T08:10:15.499Z,101093.13
2022-11-10T08:15:16.915Z,101105.50
2022-11-10T08:20:18.664Z,101097.69
2022-11-10T08:25:20.003Z,101104.75
2022-11-10T08:30:21.370Z,101110.16
2022-11-10T08:35:24.864Z,101103.53
2022-11-10T08:40:27.659Z,101109.75
2022-11-10T08:45:29.335Z,101114.81
2022-11-10T08:50:31.305Z,101116.00
2022-11-10T08:55:32.737Z,101121.25
2022-11-10T09:00:34.752Z,101128.41
2022-11-10T09:05:37.279Z,101145.97
2022-11-10T09:10:41.502Z,101157.25
2022-11-10T09:15:43.563Z,101151.66
2022-11-10T09:20:44.897Z,101157.69
2022-11-10T09:25:52.142Z,101168.97
2022-11-10T09:30:53.696Z,101177.34
2022-11-10T09:35:59.550Z,101190.38
2022-11-10T09:41:04.316Z,101186.47
2022-11-10T09:46:16.032Z,101194.75
2022-11-10T09:51:30.791Z,101216.97
2022-11-10T09:56:34.882Z,101214.47
2022-11-10T10:01:50.162Z,101220.56
2022-11-10T10:07:11.960Z,101223.34
2022-11-10T10:12:45.885Z,101236.53
2022-11-10T10:17:59.089Z,101229.75
2022-11-10T10:23:17.738Z,101236.47
2022-11-10T10:28:19.207Z,101240.94
2022-11-10T10:33:22.157Z,101240.31
2022-11-10T10:38:32.526Z,101247.22
2022-11-10T10:43:33.927Z,101225.34
2022-11-10T10:48:36.322Z,101233.28
2022-11-10T10:53:48.025Z,101239.22
2022-11-10T10:58:55.472Z,101231.06
2022-11-10T11:03:57.705Z,101238.38
2022-11-10T11:09:23.220Z,101243.06
2022-11-10T11:14:27.499Z,101235.69
2022-11-10T11:19:35.092Z,101243.25
2022-11-10T11:24:53.239Z,101246.63
2022-11-10T11:30:09.415Z,101238.75
2022-11-10T11:35:26.660Z,101244.25
2022-11-10T11:40:41.881Z,101245.22
2022-11-10T11:45:59.259Z,101240.09
2022-11-10T11:51:12.187Z,101248.19
2022-11-10T11:56:40.975Z,101255.19
2022-11-10T12:02:04.087Z,101241.41
2022-11-10T12:07:36.258Z,101240.56
2022-11-10T12:13:07.131Z,101248.28
2022-11-10T12:18:17.541Z,101242.09
2022-11-10T12:23:41.005Z,101235.88
2022-11-10T12:28:55.036Z,101242.69
2022-11-10T12:34:05.979Z,101246.03
2022-11-10T12:39:46.562Z,101256.97
2022-11-10T12:45:17.241Z,101255.88
2022-11-10T12:50:44.562Z,101247.59
2022-11-10T12:56:00.395Z,101244.97
2022-11-10T13:01:05.155Z,101239.41
2022-11-10T13:06:24.382Z,101250.47
2022-11-10T13:11:34.125Z,101251.53
2022-11-10T13:16:41.757Z,101266.31
2022-11-10T13:21:52.275Z,101263.53
2022-11-10T13:26:55.215Z,101274.53
2022-11-10T13:32:17.881Z,101262.63
2022-11-10T13:37:34.632Z,101265.69
2022-11-10T13:42:36.239Z,101255.28
2022-11-10T13:47:41.680Z,101258.88
2022-11-10T13:53:01.579Z,101261.53
2022-11-10T13:58:06.021Z,101269.19
2022-11-10T14:03:07.990Z,101268.16
2022-11-10T14:08:09.255Z,101284.44
2022-11-10T14:13:41.648Z,101283.16
2022-11-10T14:18:49.042Z,101286.13
2022-11-10T14:24:05.062Z,101294.13
2022-11-10T14:29:38.185Z,101301.34
2022-11-10T14:34:49.397Z,101296.72
2022-11-10T14:39:54.524Z,101310.94
2022-11-10T14:45:07.664Z,101312.09
2022-11-10T14:50:14.862Z,101312.66
2022-11-10T14:55:20.703Z,101310.47
2022-11-10T15:00:26.152Z,101326.84
2022-11-10T15:05:29.928Z,101335.13
2022-11-10T15:10:40.441Z,101340.91
2022-11-10T15:15:42.004Z,101330.13
2022-11-10T15:20:45.051Z,101323.06
2022-11-10T15:25:52.835Z,101330.72
2022-11-10T15:30:58.310Z,101340.25
2022-11-10T15:36:27.886Z,101337.09
2022-11-10T15:41:32.628Z,101339.44
2022-11-10T15:46:33.943Z,101334.66
2022-11-10T15:51:35.273Z,101339.78
2022-11-10T15:56:36.654Z,101354.16
2022-11-10T16:01:38.401Z,101367.53
2022-11-10T16:06:40.150Z,101370.22
2022-11-10T16:11:44.561Z,101365.13
2022-11-10T16:16:45.901Z,101375.78
2022-11-10T16:21:47.181Z,101365.44
2022-11-10T16:26:48.585Z,101368.44
2022-11-10T16:31:50.583Z,101369.66
2022-11-10T16:36:51.949Z,101375.22
2022-11-10T16:41:53.477Z,101379.72
2022-11-10T16:46:58.714Z,101367.25
2022-11-10T16:52:08.064Z,101385.59
2022-11-10T16:57:14.141Z,101389.22
2022-11-10T17:02:30.761Z,101400.13
2022-11-10T17:07:33.588Z,101414.66
2022-11-10T17:12:34.992Z,101429.97
2022-11-10T17:17:36.715Z,101428.97
2022-11-10T17:22:38.231Z,101417.47
2022-11-10T17:27:39.585Z,101424.97
2022-11-10T17:33:03.733Z,101440.94
2022-11-10T17:38:02.182Z,101451.44
2022-11-10T17:43:03.724Z,101459.34
2022-11-10T17:48:05.528Z,101460.44
2022-11-10T17:53:22.218Z,101457.88
2022-11-10T17:58:23.799Z,101458.72
2022-11-10T18:03:25.293Z,101463.88
2022-11-10T18:08:26.793Z,101462.44
2022-11-10T18:13:28.063Z,101456.94
2022-11-10T18:18:29.386Z,101452.53
2022-11-10T18:23:30.922Z,101464.81
2022-11-10T18:28:33.383Z,101464.72
2022-11-10T18:33:35.023Z,101478.69
2022-11-10T18:38:36.418Z,101473.44
2022-11-10T18:43:37.764Z,101503.75
2022-11-10T18:48:39.180Z,101493.06
2022-11-10T18:53:40.626Z,101507.84
2022-11-10T18:58:42.657Z,101492.13
2022-11-10T19:03:44.988Z,101493.91
2022-11-10T19:08:46.487Z,101514.06
2022-11-10T19:13:48.241Z,101527.19
2022-11-10T19:18:49.689Z,101529.56
2022-11-10T19:23:54.947Z,101538.94
2022-11-10T19:28:56.717Z,101534.56
2022-11-10T19:33:58.283Z,101534.53
2022-11-10T19:38:59.637Z,101532.41
2022-11-10T19:44:00.974Z,101533.91
2022-11-10T19:49:04.229Z,101520.88
2022-11-10T19:54:05.856Z,101539.03
2022-11-10T19:59:08.049Z,101548.75
2022-11-10T20:04:09.870Z,101554.94
2022-11-10T20:09:11.182Z,101556.00
2022-11-10T20:14:12.457Z,101564.88
2022-11-10T20:19:13.860Z,101566.19
2022-11-10T20:24:15.176Z,101568.75
2022-11-10T20:29:16.448Z,101566.06
2022-11-10T20:34:17.740Z,101562.63
2022-11-10T20:39:19.017Z,101558.03
2022-11-10T20:44:20.307Z,101561.84
2022-11-10T20:49:21.637Z,101559.16
2022-11-10T20:54:22.892Z,101572.63
2022-11-10T20:59:24.180Z,101575.88
2022-11-10T21:04:25.498Z,101580.16
2022-11-10T21:09:27.644Z,101575.47
2022-11-10T21:14:28.954Z,101582.69
2022-11-10T21:19:34.420Z,101586.13
2022-11-10T21:24:35.708Z,101584.91
2022-11-10T21:29:37.050Z,101588.25
2022-11-10T21:34:38.638Z,101597.22
2022-11-10T21:39:40.660Z,101584.25
2022-11-10T21:44:41.899Z,101585.94
2022-11-10T21:49:43.199Z,101584.63
2022-11-10T21:54:44.457Z,101592.69
2022-11-10T21:59:45.722Z,101588.38
2022-11-10T22:04:46.986Z,101587.34
2022-11-10T22:10:06.956Z,101590.94
2022-11-10T22:15:32.468Z,101589.84
2022-11-10T22:20:33.827Z,101577.06
2022-11-10T22:25:35.661Z,101588.91
2022-11-10T22:30:37.670Z,101586.16
2022-11-10T22:35:45.028Z,101593.53
2022-11-10T22:41:05.131Z,101590.19
2022-11-10T22:46:06.383Z,101586.75
2022-11-10T22:51:07.627Z,101597.63
2022-11-10T22:56:09.134Z,101600.38
2022-11-10T23:01:11.416Z,101605.03
2022-11-10T23:06:12.901Z,101599.38
2022-11-10T23:11:20.310Z,101602.97
2022-11-10T23:16:27.153Z,101605.69
2022-11-10T23:21:30.342Z,101600.75
2022-11-10T23:26:33.773Z,101596.97
2022-11-10T23:31:35.155Z,101594.88
2022-11-10T23:36:36.415Z,101603.81
2022-11-10T23:41:37.682Z,101614.47
2022-11-10T23:46:38.943Z,101616.34
2022-11-10T23:51:40.215Z,101617.88
2022-11-10T23:56:41.618Z,101623.72
